createdAt,value
2023-03-31T00:01:42.778Z,63.05
2023-03-31T00:04:14.877Z,62.98
2023-03-31T00:06:46.280Z,63.01
2023-03-31T00:09:19.077Z,62.97
2023-03-31T00:11:51.241Z,63.03
2023-03-31T00:14:23.614Z,63.08
2023-03-31T00:16:54.886Z,63.16
2023-03-31T00:19:29.210Z,63.20
2023-03-31T00:22:02.273Z,63.10
2023-03-31T00:24:33.793Z,63.17
2023-03-31T00:27:06.458Z,63.03
2023-03-31T00:29:41.331Z,63.01
2023-03-31T00:32:14.855Z,63.01
2023-03-31T00:34:46.688Z,62.92
2023-03-31T00:37:17.700Z,62.97
2023-03-31T00:39:51.957Z,62.95
2023-03-31T00:42:24.043Z,62.85
2023-03-31T00:45:28.302Z,62.80
2023-03-31T00:48:06.188Z,62.87
2023-03-31T00:50:49.476Z,63.03
2023-03-31T00:53:24.709Z,62.94
2023-03-31T00:56:00.505Z,63.03
2023-03-31T00:58:33.461Z,62.96
2023-03-31T01:01:06.088Z,62.92
2023-03-31T01:03:38.790Z,62.95
2023-03-31T01:06:11.490Z,62.91
2023-03-31T01:08:43.446Z,63.05
2023-03-31T01:11:17.643Z,63.06
2023-03-31T01:13:52.939Z,62.99
2023-03-31T01:16:24.586Z,62.97
2023-03-31T01:18:57.730Z,62.91
2023-03-31T01:21:57.141Z,62.86
2023-03-31T01:25:01.861Z,62.99
2023-03-31T01:27:54.249Z,63.04
2023-03-31T01:31:04.889Z,63.02
2023-03-31T01:34:00.988Z,63.07
2023-03-31T01:36:58.756Z,63.13
2023-03-31T01:40:02.186Z,63.17
2023-03-31T01:42:38.599Z,63.17
2023-03-31T01:45:21.772Z,63.07
2023-03-31T01:47:59.269Z,62.96
2023-03-31T01:50:36.808Z,63.03
2023-03-31T01:53:17.006Z,62.86
2023-03-31T01:55:55.189Z,62.81
2023-03-31T01:58:32.426Z,62.66
2023-03-31T02:01:09.775Z,62.65
2023-03-31T02:03:47.114Z,62.72
2023-03-31T02:06:24.692Z,62.68
2023-03-31T02:08:59.634Z,62.61
2023-03-31T02:11:33.136Z,62.48
2023-03-31T02:14:09.596Z,62.40
2023-03-31T02:16:47.478Z,62.35
2023-03-31T02:19:23.452Z,62.29
2023-03-31T02:21:57.027Z,62.41
2023-03-31T02:24:30.644Z,62.26
2023-03-31T02:27:08.398Z,62.27
2023-03-31T02:29:39.999Z,62.40
2023-03-31T02:32:18.770Z,62.31
2023-03-31T02:34:50.339Z,62.31
2023-03-31T02:37:21.868Z,62.17
2023-03-31T02:39:55.307Z,62.37
2023-03-31T02:42:26.924Z,62.13
2023-03-31T02:45:05.388Z,62.12
2023-03-31T02:47:37.191Z,62.15
2023-03-31T02:50:11.058Z,62.07
2023-03-31T02:52:58.679Z,62.12
2023-03-31T02:55:49.094Z,61.98
2023-03-31T02:58:56.075Z,62.06
2023-03-31T03:01:41.754Z,62.07
2023-03-31T03:04:29.872Z,62.07
2023-03-31T03:07:10.434Z,61.92
2023-03-31T03:09:55.122Z,61.92
2023-03-31T03:12:34.188Z,61.86
2023-03-31T03:15:12.224Z,61.79
2023-03-31T03:17:45.890Z,61.75
2023-03-31T03:20:21.767Z,61.67
2023-03-31T03:22:54.038Z,61.72
2023-03-31T03:25:25.794Z,61.67
2023-03-31T03:27:57.551Z,61.68
2023-03-31T03:30:28.434Z,61.61
2023-03-31T03:33:00.190Z,61.57
2023-03-31T03:35:31.840Z,61.39
2023-03-31T03:38:03.425Z,61.41
2023-03-31T03:40:34.688Z,61.30
2023-03-31T03:43:08.105Z,61.50
2023-03-31T03:45:39.827Z,61.55
2023-03-31T03:48:11.304Z,61.50
2023-03-31T03:50:42.513Z,61.52
2023-03-31T03:53:14.677Z,61.60
2023-03-31T03:55:49.030Z,61.55
2023-03-31T03:58:20.629Z,61.53
2023-03-31T04:00:51.807Z,61.57
2023-03-31T04:03:23.863Z,61.45
2023-03-31T04:05:54.908Z,61.37
2023-03-31T04:08:26.662Z,61.41
2023-03-31T04:10:58.461Z,61.23
2023-03-31T04:13:29.952Z,61.06
2023-03-31T04:16:01.733Z,61.03
2023-03-31T04:18:32.781Z,60.87
2023-03-31T04:21:05.169Z,60.83
2023-03-31T04:23:38.569Z,60.87
2023-03-31T04:26:10.062Z,60.83
2023-03-31T04:28:42.984Z,60.86
2023-03-31T04:31:16.674Z,60.67
2023-03-31T04:33:48.208Z,60.64
2023-03-31T04:36:19.425Z,60.53
2023-03-31T04:38:55.081Z,60.54
2023-03-31T04:41:28.528Z,60.57
2023-03-31T04:43:59.988Z,60.40
2023-03-31T04:46:31.056Z,60.41
2023-03-31T04:49:03.079Z,60.43
2023-03-31T04:51:34.225Z,60.37
2023-03-31T04:54:05.347Z,60.85
2023-03-31T04:56:36.474Z,61.00
2023-03-31T04:59:08.861Z,60.59
2023-03-31T05:01:45.891Z,60.46
2023-03-31T05:04:16.891Z,60.12
2023-03-31T05:06:48.163Z,60.28
2023-03-31T05:09:20.850Z,60.07
2023-03-31T05:11:52.571Z,59.97
2023-03-31T05:14:23.734Z,59.47
2023-03-31T05:16:58.253Z,59.02
2023-03-31T05:19:29.642Z,59.01
2023-03-31T05:22:00.957Z,58.92
2023-03-31T05:24:32.278Z,58.82
2023-03-31T05:27:03.553Z,58.76
2023-03-31T05:29:34.792Z,58.79
2023-03-31T05:32:06.682Z,58.84
2023-03-31T05:34:38.219Z,58.86
2023-03-31T05:37:09.466Z,58.61
2023-03-31T05:39:40.428Z,58.66
2023-03-31T05:42:12.213Z,58.84
2023-03-31T05:44:43.639Z,58.75
2023-03-31T05:47:15.433Z,58.84
2023-03-31T05:49:47.014Z,58.74
2023-03-31T05:52:18.304Z,58.74
2023-03-31T05:54:49.626Z,58.32
2023-03-31T05:57:21.425Z,58.53
2023-03-31T05:59:53.304Z,58.58
2023-03-31T06:02:24.629Z,58.36
2023-03-31T06:04:56.246Z,58.11
2023-03-31T06:07:28.188Z,57.83
2023-03-31T06:09:59.368Z,57.72
2023-03-31T06:12:30.914Z,57.53
2023-03-31T06:15:01.935Z,57.52
2023-03-31T06:17:33.444Z,57.62
2023-03-31T06:20:15.949Z,57.58
2023-03-31T06:22:56.125Z,57.37
2023-03-31T06:25:29.263Z,57.49
2023-03-31T06:28:04.056Z,57.44
2023-03-31T06:30:35.931Z,57.68
2023-03-31T06:33:08.090Z,57.72
2023-03-31T06:35:42.367Z,57.86
2023-03-31T06:38:13.710Z,57.91
2023-03-31T06:40:45.060Z,58.03
2023-03-31T06:43:16.358Z,58.22
2023-03-31T06:45:47.923Z,58.08
2023-03-31T06:48:19.254Z,58.19
2023-03-31T06:50:50.501Z,58.19
2023-03-31T06:53:22.446Z,58.19
2023-03-31T06:55:53.514Z,58.20
2023-03-31T06:58:25.062Z,58.19
2023-03-31T07:00:56.447Z,58.20
2023-03-31T07:03:29.734Z,58.18
2023-03-31T07:06:01.427Z,58.18
2023-03-31T07:08:32.979Z,58.33
2023-03-31T07:11:05.001Z,58.23
2023-03-31T07:13:36.984Z,58.20
2023-03-31T07:16:10.131Z,58.09
2023-03-31T07:18:42.326Z,58.13
2023-03-31T07:21:14.176Z,58.22
2023-03-31T07:23:46.505Z,58.06
2023-03-31T07:26:17.962Z,58.28
2023-03-31T07:28:49.295Z,58.62
2023-03-31T07:31:20.963Z,58.86
2023-03-31T07:33:52.739Z,59.01
2023-03-31T07:36:24.225Z,58.58
2023-03-31T07:38:55.566Z,58.56
2023-03-31T07:41:27.096Z,58.62
2023-03-31T07:43:58.390Z,58.89
2023-03-31T07:46:30.535Z,58.98
2023-03-31T07:49:03.386Z,59.12
2023-03-31T07:51:34.808Z,59.25
2023-03-31T07:54:06.221Z,59.39
2023-03-31T07:56:37.228Z,59.59
2023-03-31T07:59:08.308Z,59.80
2023-03-31T08:01:39.933Z,59.99
2023-03-31T08:04:13.530Z,60.08
2023-03-31T08:06:44.761Z,60.10
2023-03-31T08:09:16.712Z,60.32
2023-03-31T08:11:48.225Z,60.28
2023-03-31T08:14:30.295Z,60.20
2023-03-31T08:17:02.105Z,60.21
2023-03-31T08:19:33.255Z,60.43
2023-03-31T08:22:04.696Z,60.40
2023-03-31T08:24:35.856Z,60.58
2023-03-31T08:27:11.994Z,60.40
2023-03-31T08:29:43.448Z,60.23
2023-03-31T08:32:14.879Z,60.16
2023-03-31T08:34:46.414Z,59.83
2023-03-31T08:37:17.498Z,60.01
2023-03-31T08:39:48.626Z,60.09
2023-03-31T08:42:27.602Z,60.07
2023-03-31T08:45:04.982Z,60.11
2023-03-31T08:47:38.219Z,60.03
2023-03-31T08:50:14.410Z,60.16
2023-03-31T08:52:50.503Z,60.14
2023-03-31T08:55:26.960Z,60.19
2023-03-31T08:58:03.088Z,60.31
2023-03-31T09:00:47.860Z,60.35
2023-03-31T09:03:27.287Z,60.33
2023-03-31T09:06:04.287Z,60.78
2023-03-31T09:08:42.481Z,60.72
2023-03-31T09:11:23.126Z,60.68
2023-03-31T09:14:26.929Z,60.65
2023-03-31T09:17:14.072Z,60.75
2023-03-31T09:19:51.272Z,60.80
2023-03-31T09:22:27.354Z,60.88
2023-03-31T09:25:05.232Z,61.11
2023-03-31T09:27:38.251Z,61.02
2023-03-31T09:30:16.711Z,61.18
2023-03-31T09:32:49.564Z,61.15
2023-03-31T09:35:23.305Z,61.12
2023-03-31T09:37:55.478Z,61.17
2023-03-31T09:40:29.189Z,61.25
2023-03-31T09:43:04.941Z,61.31
2023-03-31T09:45:37.400Z,61.13
2023-03-31T09:48:15.581Z,61.18
2023-03-31T09:50:50.467Z,61.19
2023-03-31T09:53:30.505Z,61.15
2023-03-31T09:56:05.430Z,61.27
2023-03-31T09:58:43.894Z,61.52
2023-03-31T10:01:16.669Z,61.78
2023-03-31T10:03:54.017Z,61.85
2023-03-31T10:06:26.663Z,61.90
2023-03-31T10:09:01.596Z,61.95
2023-03-31T10:11:33.485Z,62.10
2023-03-31T10:14:06.500Z,61.97
2023-03-31T10:16:45.398Z,61.88
2023-03-31T10:19:22.866Z,62.14
2023-03-31T10:22:00.022Z,62.36
2023-03-31T10:24:40.185Z,62.50
2023-03-31T10:27:23.692Z,62.54
2023-03-31T10:29:57.525Z,62.62
2023-03-31T10:32:31.059Z,62.63
2023-03-31T10:35:07.878Z,62.54
2023-03-31T10:37:40.149Z,62.69
2023-03-31T10:40:21.077Z,62.65
2023-03-31T10:43:03.102Z,62.87
2023-03-31T10:45:43.284Z,62.72
2023-03-31T10:48:25.443Z,62.70
2023-03-31T10:51:00.260Z,62.81
2023-03-31T10:53:31.610Z,62.76
2023-03-31T10:56:14.736Z,62.67
2023-03-31T10:59:05.735Z,62.53
2023-03-31T11:01:52.222Z,62.63
2023-03-31T11:04:47.728Z,62.71
2023-03-31T11:07:32.594Z,62.77
2023-03-31T11:10:22.244Z,62.64
2023-03-31T11:12:59.860Z,62.67
2023-03-31T11:15:37.843Z,62.66
2023-03-31T11:18:26.865Z,62.77
2023-03-31T11:21:07.769Z,62.76
2023-03-31T11:23:52.341Z,62.86
2023-03-31T11:26:31.120Z,62.64
2023-03-31T11:29:13.018Z,62.55
2023-03-31T11:31:52.752Z,62.74
2023-03-31T11:34:55.475Z,62.80
2023-03-31T11:37:45.983Z,62.91
2023-03-31T11:40:45.862Z,63.16
2023-03-31T11:43:24.759Z,63.57
2023-03-31T11:46:02.675Z,63.61
2023-03-31T11:48:44.980Z,63.71
2023-03-31T11:51:21.128Z,63.63
2023-03-31T11:53:55.727Z,63.80
2023-03-31T11:56:32.609Z,63.96
2023-03-31T11:59:05.870Z,64.00
2023-03-31T12:01:44.274Z,63.82
2023-03-31T12:04:27.317Z,63.85
2023-03-31T12:07:04.177Z,63.77
2023-03-31T12:09:39.709Z,63.72
2023-03-31T12:12:17.088Z,63.80
2023-03-31T12:14:54.535Z,64.07
2023-03-31T12:17:29.642Z,63.99
2023-03-31T12:20:09.393Z,64.07
2023-03-31T12:22:44.878Z,64.04
2023-03-31T12:25:23.265Z,64.27
2023-03-31T12:27:55.174Z,64.29
2023-03-31T12:30:34.652Z,64.55
2023-03-31T12:33:09.163Z,64.60
2023-03-31T12:35:52.809Z,64.62
2023-03-31T12:38:36.486Z,64.73
2023-03-31T12:41:16.323Z,65.00
2023-03-31T12:44:04.894Z,65.04
2023-03-31T12:46:54.241Z,64.87
2023-03-31T12:49:43.116Z,65.08
2023-03-31T12:52:19.614Z,65.04
2023-03-31T12:55:23.428Z,65.18
2023-03-31T12:57:55.073Z,65.47
2023-03-31T13:00:30.188Z,65.28
2023-03-31T13:03:28.825Z,65.78
2023-03-31T13:05:59.994Z,65.80
2023-03-31T13:08:54.746Z,65.95
2023-03-31T13:11:40.021Z,66.33
2023-03-31T13:14:20.891Z,66.50
2023-03-31T13:16:55.572Z,66.50
2023-03-31T13:19:34.546Z,66.89
2023-03-31T13:22:07.409Z,66.63
2023-03-31T13:24:38.663Z,66.33
2023-03-31T13:27:34.486Z,66.78
2023-03-31T13:30:07.808Z,66.61
2023-03-31T13:32:40.535Z,66.92
2023-03-31T13:35:20.008Z,66.84
2023-03-31T13:38:11.022Z,66.98
2023-03-31T13:41:02.770Z,67.44
2023-03-31T13:44:10.087Z,67.52
2023-03-31T13:47:02.620Z,67.35
2023-03-31T13:49:55.458Z,67.47
2023-03-31T13:52:41.001Z,67.78
2023-03-31T13:55:45.410Z,67.56
2023-03-31T13:58:44.235Z,67.84
2023-03-31T14:01:42.232Z,67.73
2023-03-31T14:04:30.065Z,67.17
2023-03-31T14:07:03.771Z,66.93
2023-03-31T14:09:36.922Z,66.88
2023-03-31T14:15:19.108Z,66.38
2023-03-31T14:17:51.068Z,66.31
2023-03-31T14:20:43.842Z,65.85
2023-03-31T14:23:26.382Z,65.63
2023-03-31T14:26:06.268Z,65.51
2023-03-31T14:28:54.661Z,65.04
2023-03-31T14:31:35.686Z,64.89
2023-03-31T14:34:37.113Z,64.79
2023-03-31T14:37:11.850Z,64.75
2023-03-31T14:39:45.947Z,64.62
2023-03-31T14:42:19.756Z,64.35
2023-03-31T14:44:56.794Z,64.42
2023-03-31T14:47:30.500Z,64.47
2023-03-31T14:50:09.213Z,64.32
2023-03-31T14:52:41.060Z,64.65
2023-03-31T14:55:20.066Z,64.83
2023-03-31T14:57:54.921Z,65.11
2023-03-31T15:00:30.319Z,65.25
2023-03-31T15:03:04.905Z,65.36
2023-03-31T15:05:39.533Z,65.12
2023-03-31T15:08:18.106Z,65.27
2023-03-31T15:10:58.936Z,65.28
2023-03-31T15:13:40.950Z,65.32
2023-03-31T15:16:36.406Z,65.42
2023-03-31T15:19:16.604Z,65.51
2023-03-31T15:21:55.182Z,65.70
2023-03-31T15:24:27.654Z,65.08
2023-03-31T15:27:04.282Z,64.76
2023-03-31T15:29:40.322Z,64.69
2023-03-31T15:32:17.722Z,64.59
2023-03-31T15:34:49.703Z,64.80
2023-03-31T15:37:27.976Z,64.44
2023-03-31T15:40:05.239Z,64.23
2023-03-31T15:42:39.365Z,63.65
2023-03-31T15:45:50.051Z,63.59
2023-03-31T15:48:33.625Z,63.24
2023-03-31T15:51:18.513Z,63.02
2023-03-31T15:53:53.462Z,62.39
2023-03-31T15:56:43.949Z,62.25
2023-03-31T15:59:34.322Z,62.14
2023-03-31T16:02:16.320Z,61.95
2023-03-31T16:04:52.094Z,61.90
2023-03-31T16:07:27.513Z,61.89
2023-03-31T16:10:02.161Z,61.84
2023-03-31T16:12:37.284Z,61.55
2023-03-31T16:15:14.341Z,61.54
2023-03-31T16:17:54.133Z,61.56
2023-03-31T16:20:30.365Z,61.37
2023-03-31T16:23:03.890Z,61.36
2023-03-31T16:25:40.456Z,61.21
2023-03-31T16:28:18.420Z,61.14
2023-03-31T16:30:50.499Z,61.12
2023-03-31T16:33:24.868Z,60.96
2023-03-31T16:35:58.898Z,60.71
2023-03-31T16:38:31.607Z,60.57
2023-03-31T16:41:03.167Z,60.69
2023-03-31T16:43:35.947Z,60.81
2023-03-31T16:46:08.082Z,60.63
2023-03-31T16:48:39.708Z,60.68
2023-03-31T16:51:11.903Z,60.78
2023-03-31T16:53:57.545Z,60.60
2023-03-31T16:56:30.928Z,60.63
2023-03-31T16:59:03.855Z,60.53
2023-03-31T17:01:36.408Z,60.74
2023-03-31T17:04:08.546Z,60.69
2023-03-31T17:06:40.245Z,60.65
2023-03-31T17:09:12.361Z,60.57
2023-03-31T17:11:43.682Z,60.58
2023-03-31T17:14:15.182Z,60.57
2023-03-31T17:16:48.471Z,60.70
2023-03-31T17:19:22.762Z,60.73
2023-03-31T17:21:55.263Z,60.78
2023-03-31T17:24:27.599Z,60.80
2023-03-31T17:26:59.303Z,61.05
2023-03-31T17:29:30.871Z,61.14
2023-03-31T17:32:02.472Z,61.38
2023-03-31T17:34:34.667Z,61.07
2023-03-31T17:37:07.065Z,61.26
2023-03-31T17:39:38.514Z,61.03
2023-03-31T17:42:10.316Z,61.10
2023-03-31T17:44:42.521Z,60.98
2023-03-31T17:47:13.994Z,61.06
2023-03-31T17:49:45.128Z,61.10
2023-03-31T17:52:17.093Z,61.34
2023-03-31T17:54:50.674Z,61.31
2023-03-31T17:57:22.729Z,61.39
2023-03-31T17:59:54.485Z,61.46
2023-03-31T18:02:26.131Z,61.56
2023-03-31T18:04:58.398Z,61.68
2023-03-31T18:07:30.216Z,61.73
2023-03-31T18:10:05.446Z,62.01
2023-03-31T18:12:37.960Z,62.11
2023-03-31T18:15:11.818Z,62.37
2023-03-31T18:17:44.696Z,62.41
2023-03-31T18:20:16.898Z,62.40
2023-03-31T18:22:48.249Z,62.52
2023-03-31T18:25:19.431Z,62.67
2023-03-31T18:27:50.936Z,62.74
2023-03-31T18:30:22.816Z,62.62
2023-03-31T18:32:54.829Z,62.70
2023-03-31T18:35:27.483Z,62.74
2023-03-31T18:37:59.088Z,62.83
2023-03-31T18:40:30.864Z,62.84
2023-03-31T18:43:02.819Z,62.89
2023-03-31T18:45:35.027Z,62.83
2023-03-31T18:48:06.762Z,62.90
2023-03-31T18:50:38.313Z,63.04
2023-03-31T18:53:09.817Z,62.99
2023-03-31T18:55:41.160Z,62.94
2023-03-31T18:58:13.618Z,62.84
2023-03-31T19:00:45.473Z,63.11
2023-03-31T19:03:17.621Z,62.98
2023-03-31T19:05:49.774Z,62.99
2023-03-31T19:08:22.036Z,62.86
2023-03-31T19:10:53.871Z,62.84
2023-03-31T19:13:25.005Z,62.93
2023-03-31T19:15:56.440Z,63.02
2023-03-31T19:18:28.544Z,62.98
2023-03-31T19:21:00.521Z,62.96
2023-03-31T19:23:33.118Z,63.09
2023-03-31T19:26:05.194Z,63.22
2023-03-31T19:28:37.379Z,63.32
2023-03-31T19:31:09.073Z,63.30
2023-03-31T19:33:41.003Z,63.22
2023-03-31T19:36:13.524Z,63.23
2023-03-31T19:38:45.341Z,63.29
2023-03-31T19:41:18.449Z,63.56
2023-03-31T19:43:50.414Z,63.64
2023-03-31T19:46:21.486Z,63.69
2023-03-31T19:48:52.916Z,63.84
2023-03-31T19:51:24.614Z,63.93
2023-03-31T19:53:57.077Z,64.15
2023-03-31T19:56:28.766Z,64.20
2023-03-31T19:59:00.543Z,64.39
2023-03-31T20:01:31.982Z,64.47
2023-03-31T20:04:03.966Z,64.77
2023-03-31T20:06:37.509Z,64.79
2023-03-31T20:09:09.261Z,65.02
2023-03-31T20:11:43.635Z,65.22
2023-03-31T20:14:15.798Z,65.25
2023-03-31T20:16:48.055Z,65.31
2023-03-31T20:19:20.291Z,65.60
2023-03-31T20:21:56.091Z,65.69
2023-03-31T20:24:29.567Z,65.76
2023-03-31T20:27:01.689Z,65.66
2023-03-31T20:29:33.152Z,65.70
2023-03-31T20:32:05.922Z,65.76
2023-03-31T20:34:37.380Z,65.90
2023-03-31T20:37:09.102Z,65.96
2023-03-31T20:39:41.286Z,65.85
2023-03-31T20:42:13.352Z,65.74
2023-03-31T20:44:44.965Z,65.78
2023-03-31T20:47:16.192Z,65.83
2023-03-31T20:49:49.453Z,65.81
2023-03-31T20:52:20.972Z,65.87
2023-03-31T20:54:52.390Z,65.67
2023-03-31T20:57:24.527Z,65.63
2023-03-31T20:59:57.404Z,65.46
2023-03-31T21:02:29.527Z,65.34
2023-03-31T21:05:01.985Z,65.19
2023-03-31T21:07:34.299Z,65.05
2023-03-31T21:10:06.250Z,64.96
2023-03-31T21:12:38.113Z,64.92
2023-03-31T21:15:12.582Z,65.02
2023-03-31T21:17:44.082Z,65.00
2023-03-31T21:20:15.960Z,64.92
2023-03-31T21:22:47.404Z,64.89
2023-03-31T21:25:19.085Z,65.05
2023-03-31T21:27:51.081Z,65.02
2023-03-31T21:30:28.580Z,65.03
2023-03-31T21:33:00.303Z,65.06
2023-03-31T21:35:32.516Z,64.97
2023-03-31T21:38:05.239Z,64.96
2023-03-31T21:40:37.845Z,64.90
2023-03-31T21:43:10.197Z,65.06
2023-03-31T21:45:43.119Z,64.93
2023-03-31T21:48:15.410Z,64.91
2023-03-31T21:50:48.380Z,65.12
2023-03-31T21:53:20.192Z,64.95
2023-03-31T21:56:00.735Z,65.22
2023-03-31T21:58:36.147Z,65.24
2023-03-31T22:01:08.517Z,65.13
2023-03-31T22:03:42.518Z,65.05
2023-03-31T22:06:13.812Z,65.07
2023-03-31T22:08:45.137Z,65.02
2023-03-31T22:11:17.262Z,64.99
2023-03-31T22:13:49.467Z,64.98
2023-03-31T22:16:23.368Z,65.02
2023-03-31T22:18:55.605Z,65.07
2023-03-31T22:21:45.373Z,64.73
2023-03-31T22:24:17.274Z,64.65
2023-03-31T22:26:48.937Z,64.53
2023-03-31T22:29:20.383Z,64.34
2023-03-31T22:31:52.928Z,64.42
2023-03-31T22:34:24.796Z,64.48
2023-03-31T22:36:57.664Z,64.37
2023-03-31T22:39:29.837Z,64.42
2023-03-31T22:42:01.015Z,64.45
2023-03-31T22:44:33.330Z,64.27
2023-03-31T22:47:04.992Z,64.17
2023-03-31T22:49:36.716Z,64.10
2023-03-31T22:52:09.364Z,63.97
2023-03-31T22:54:41.383Z,63.75
2023-03-31T22:57:13.608Z,63.73
2023-03-31T22:59:45.976Z,63.68
2023-03-31T23:02:19.395Z,63.71
2023-03-31T23:04:50.918Z,63.69
2023-03-31T23:07:23.333Z,63.69
2023-03-31T23:09:55.479Z,63.69
2023-03-31T23:12:29.739Z,63.70
2023-03-31T23:15:01.732Z,63.69
2023-03-31T23:17:34.189Z,63.70
2023-03-31T23:20:07.789Z,63.81
2023-03-31T23:22:39.526Z,63.75
2023-03-31T23:25:11.900Z,63.80
2023-03-31T23:27:43.865Z,63.76
2023-03-31T23:30:17.660Z,63.72
2023-03-31T23:32:49.118Z,63.58
2023-03-31T23:35:20.766Z,63.44
2023-03-31T23:37:52.292Z,63.74
2023-03-31T23:40:23.761Z,63.56
2023-03-31T23:42:55.415Z,63.71
2023-03-31T23:45:26.765Z,63.90
2023-03-31T23:47:58.900Z,63.71
2023-03-31T23:50:30.280Z,63.48
2023-03-31T23:53:02.370Z,63.48
2023-03-31T23:55:34.152Z,63.42
2023-03-31T23:58:09.248Z,63.51
